Time;durP1;ratioP1;P1;durP2;ratioP2;P2;SDS_P1;SDS_P2;PMS_P1;PMS_P2;Temp;Humidity;BMP_temperature;BMP_pressure;BME280_temperature;BME280_humidity;BME280_pressure;Samples;Min_cycle;Max_cycle;Signal;HPM_P1;HPM_P2
2023/12/16 00:03:28;;;;;;;11.60;9.00;;;;;;;16.71;37.28;101960.81;10562939;28;20250;-71
2023/12/16 00:08:29;;;;;;;11.50;9.10;;;;;;;14.62;39.81;101966.00;10561040;28;20230;-71
2023/12/16 00:13:31;;;;;;;13.97;10.03;;;;;;;16.54;37.82;101874.34;10570481;27;20244;-70
2023/12/16 00:18:35;;;;;;;12.50;9.60;;;;;;;16.36;37.95;101858.34;10549485;27;20237;-69
2023/12/16 00:23:36;;;;;;;13.97;10.23;;;;;;;15.92;38.40;101926.22;10577565;27;20568;-71
2023/12/16 00:28:38;;;;;;;14.27;9.90;;;;;;;16.72;37.61;101806.56;10548629;27;20239;-71
2023/12/16 00:33:40;;;;;;;11.67;8.57;;;;;;;14.15;40.54;101899.84;10577550;27;20319;-71
2023/12/16 00:38:42;;;;;;;12.90;10.23;;;;;;;14.30;40.44;101873.22;10575244;27;20234;-71
2023/12/16 00:43:43;;;;;;;12.33;9.20;;;;;;;15.08;39.42;101864.19;10570239;27;20549;-70
2023/12/16 00:48:45;;;;;;;14.63;10.43;;;;;;;14.56;41.11;101734.94;10577181;27;20283;-70
2023/12/16 00:53:47;;;;;;;13.87;10.30;;;;;;;14.84;40.04;101808.34;10572423;27;20278;-70
2023/12/16 00:58:49;;;;;;;13.53;9.57;;;;;;;15.30;39.01;101878.03;10544570;27;20287;-71
2023/12/16 01:03:50;;;;;;;11.70;9.80;;;;;;;15.60;38.75;101835.31;10574917;27;20235;-70
2023/12/16 01:08:52;;;;;;;12.90;10.20;;;;;;;14.01;40.34;101863.56;10575575;27;20233;-71
2023/12/16 01:13:54;;;;;;;14.90;10.30;;;;;;;16.37;37.40;101872.72;10573930;27;20736;-70
2023/12/16 01:18:55;;;;;;;10.93;9.70;;;;;;;15.50;38.64;101878.59;10566699;27;20231;-69
2023/12/16 01:23:58;;;;;;;13.03;9.97;;;;;;;14.37;40.66;101863.50;10568000;27;20571;-70
2023/12/16 01:28:59;;;;;;;12.63;9.27;;;;;;;15.89;38.23;101869.88;10573241;27;20317;-69
2023/12/16 01:34:01;;;;;;;16.47;11.27;;;;;;;14.97;39.81;101844.78;10561082;27;20276;-70
2023/12/16 01:39:03;;;;;;;15.80;10.53;;;;;;;16.60;37.24;101889.91;10555287;27;20602;-70
2023/12/16 01:44:05;;;;;;;13.00;9.60;;;;;;;15.86;38.58;101894.53;10546713;27;20255;-70
2023/12/16 01:49:07;;;;;;;13.87;10.10;;;;;;;14.88;39.83;101854.66;10568460;27;20235;-70
2023/12/16 01:54:10;;;;;;;12.80;10.00;;;;;;;14.40;40.14;101914.34;10573812;27;20229;-70
2023/12/16 01:59:12;;;;;;;12.60;10.07;;;;;;;14.33;40.94;101812.81;10561306;27;20258;-70
2023/12/16 02:04:14;;;;;;;14.20;9.43;;;;;;;14.30;40.83;101867.81;10564101;27;20232;-69
2023/12/16 02:09:18;;;;;;;12.40;9.57;;;;;;;16.53;37.85;101839.41;10570258;27;20235;-71
2023/12/16 02:14:20;;;;;;;13.20;9.17;;;;;;;17.45;36.35;101898.31;10571047;27;20305;-71
2023/12/16 02:19:25;;;;;;;12.70;10.10;;;;;;;16.18;37.80;101920.66;10573262;27;20234;-71
2023/12/16 02:24:28;;;;;;;15.80;9.97;;;;;;;15.45;38.71;101988.88;10566829;27;20676;-70
2023/12/16 02:29:30;;;;;;;13.63;9.50;;;;;;;15.41;39.30;101925.47;10574420;27;20578;-70
2023/12/16 02:34:32;;;;;;;13.10;9.10;;;;;;;15.45;38.75;101972.69;10570304;27;20241;-70
2023/12/16 02:39:33;;;;;;;14.67;10.53;;;;;;;15.31;39.28;101920.22;10580873;27;20250;-70
2023/12/16 02:44:37;;;;;;;14.27;9.40;;;;;;;15.70;38.80;101871.88;10570195;27;20253;-70
2023/12/16 02:49:39;;;;;;;12.87;9.80;;;;;;;15.84;38.32;101926.22;10571346;27;20236;-71
2023/12/16 02:54:41;;;;;;;18.77;14.77;;;;;;;14.50;40.01;102010.38;10565413;27;20672;-70
2023/12/16 02:59:43;;;;;;;13.90;10.97;;;;;;;13.76;40.72;101996.22;10576684;27;20231;-70
2023/12/16 03:04:45;;;;;;;18.53;14.47;;;;;;;15.44;38.66;101915.19;10532734;28;20231;-70
2023/12/16 03:09:47;;;;;;;14.23;11.07;;;;;;;15.21;39.26;101909.56;10549244;28;20233;-71
2023/12/16 03:14:49;;;;;;;14.77;10.57;;;;;;;12.98;42.40;101951.72;10568434;28;20583;-70
2023/12/16 03:19:50;;;;;;;12.47;10.23;;;;;;;15.32;39.01;101949.72;10576509;28;20659;-70
2023/12/16 03:24:52;;;;;;;11.70;9.40;;;;;;;16.60;37.18;101986.31;10543329;28;20527;-69
2023/12/16 03:29:54;;;;;;;14.10;10.10;;;;;;;14.23;40.37;101969.09;10559767;28;20239;-71
2023/12/16 03:34:55;;;;;;;12.97;10.43;;;;;;;15.05;39.59;101948.09;10562456;28;20228;-70
2023/12/16 03:39:57;;;;;;;12.43;9.33;;;;;;;16.28;37.99;101879.16;10566084;28;20711;-70
2023/12/16 03:44:58;;;;;;;14.93;10.70;;;;;;;13.69;40.90;101952.91;10572927;27;20292;-71
2023/12/16 03:50:00;;;;;;;12.50;10.07;;;;;;;14.66;39.21;102010.50;10589547;27;20323;-70
2023/12/16 03:55:03;;;;;;;13.67;11.10;;;;;;;14.11;40.65;101911.13;10571021;27;20273;-70
2023/12/16 04:00:05;;;;;;;13.53;10.60;;;;;;;14.06;41.14;101873.03;10579343;27;20290;-70
2023/12/16 04:05:08;;;;;;;13.50;10.70;;;;;;;13.17;41.42;101958.00;10573800;27;20228;-70
2023/12/16 04:10:10;;;;;;;16.57;11.57;;;;;;;14.65;40.23;101828.28;10581627;27;20227;-70
2023/12/16 04:15:12;;;;;;;14.27;10.80;;;;;;;13.45;41.18;101905.09;10567119;27;20222;-69
2023/12/16 04:20:14;;;;;;;13.93;10.77;;;;;;;14.94;39.32;101830.59;10578866;27;20328;-69
2023/12/16 04:25:18;;;;;;;13.53;10.03;;;;;;;14.08;40.47;101871.88;10576471;27;20466;-70
2023/12/16 04:30:19;;;;;;;12.50;9.87;;;;;;;14.03;39.85;101969.22;10565889;27;20235;-70
2023/12/16 04:35:21;;;;;;;14.00;10.63;;;;;;;15.29;38.44;101906.88;10568855;27;20234;-70
2023/12/16 04:40:23;;;;;;;12.47;10.27;;;;;;;13.20;41.52;101875.22;10567305;27;20707;-70
2023/12/16 04:45:24;;;;;;;14.77;11.00;;;;;;;14.62;39.44;101876.25;10568536;27;20754;-70
2023/12/16 04:50:26;;;;;;;15.30;11.10;;;;;;;13.85;41.07;101852.66;10562811;27;20229;-69
2023/12/16 04:55:28;;;;;;;12.43;10.50;;;;;;;14.98;39.11;101833.81;10571403;27;20233;-71
2023/12/16 05:00:30;;;;;;;16.63;10.70;;;;;;;13.45;40.59;101926.63;10575701;27;20241;-72
2023/12/16 05:05:32;;;;;;;14.07;11.03;;;;;;;16.12;37.85;101851.13;10562610;27;20618;-71
2023/12/16 05:10:33;;;;;;;15.33;11.57;;;;;;;14.36;40.20;101877.13;10570836;27;20242;-73
2023/12/16 05:15:38;;;;;;;13.13;10.37;;;;;;;14.99;38.90;101962.22;10570281;27;20711;-71
2023/12/16 05:20:39;;;;;;;15.67;11.20;;;;;;;14.21;40.53;101880.38;10565900;27;20238;-71
2023/12/16 05:25:42;;;;;;;14.27;10.40;;;;;;;12.81;41.49;101999.00;10568288;27;20223;-71
2023/12/16 05:30:43;;;;;;;16.80;11.87;;;;;;;14.03;40.56;101919.94;10569237;27;20234;-71
2023/12/16 05:35:45;;;;;;;15.30;11.77;;;;;;;16.30;37.43;101883.38;10512179;28;20883;-71
2023/12/16 05:40:47;;;;;;;15.27;10.83;;;;;;;16.38;36.91;101979.75;10529935;28;20237;-72
2023/12/16 05:45:48;;;;;;;12.93;10.20;;;;;;;14.35;39.40;101934.69;10552501;28;20574;-71
2023/12/16 05:50:50;;;;;;;13.70;10.67;;;;;;;14.58;39.89;101902.69;10518087;28;20228;-71
2023/12/16 05:55:52;;;;;;;15.73;11.87;;;;;;;15.83;37.79;101941.59;10554209;27;21493;-71
2023/12/16 06:00:53;;;;;;;15.73;11.30;;;;;;;15.67;38.16;101960.44;10567928;27;20813;-72
2023/12/16 06:05:55;;;;;;;13.33;9.87;;;;;;;12.81;41.65;102060.81;10515097;28;20273;-71
2023/12/16 06:10:57;;;;;;;15.47;10.93;;;;;;;13.13;41.47;101988.84;10500445;28;20238;-71
2023/12/16 06:16:01;;;;;;;15.47;10.97;;;;;;;14.19;39.95;101990.09;10507884;28;20606;-71
2023/12/16 06:21:17;;;;;;;17.23;11.03;;;;;;;14.98;39.49;101868.84;10507873;28;22521;-71
2023/12/16 06:26:18;;;;;;;17.10;12.00;;;;;;;14.93;39.51;101939.44;10513557;28;20712;-72
2023/12/16 06:31:21;;;;;;;19.10;11.93;;;;;;;14.67;39.69;101996.03;10506061;28;20752;-71
2023/12/16 06:36:24;;;;;;;19.67;11.90;;;;;;;12.25;42.40;102043.56;10506734;28;20220;-71
2023/12/16 06:41:30;;;;;;;17.27;11.53;;;;;;;14.76;39.75;101938.50;10511357;28;20251;-72
2023/12/16 06:46:31;;;;;;;18.07;11.90;;;;;;;10.77;46.43;101876.25;10499452;28;20322;-71
2023/12/16 06:51:33;;;;;;;14.20;11.33;;;;;;;13.27;42.61;101817.16;10504501;28;20235;-71
2023/12/16 06:56:35;;;;;;;17.53;13.03;;;;;;;11.17;45.15;101956.63;10508114;28;20597;-72
2023/12/16 07:01:36;;;;;;;14.97;12.33;;;;;;;11.99;44.91;101852.75;10501859;28;20301;-71
2023/12/16 07:06:38;;;;;;;17.43;13.03;;;;;;;13.58;41.92;101853.59;10545317;28;20717;-72
2023/12/16 07:11:40;;;;;;;15.87;11.97;;;;;;;14.32;40.84;101921.53;10565838;28;20239;-70
2023/12/16 07:16:42;;;;;;;19.07;12.30;;;;;;;13.34;41.52;102004.78;10564518;28;20222;-72
2023/12/16 07:21:43;;;;;;;15.17;11.40;;;;;;;14.58;40.22;101925.06;10558028;27;20235;-71
2023/12/16 07:26:45;;;;;;;14.57;12.10;;;;;;;15.59;38.83;101925.34;10571103;27;20363;-71
2023/12/16 07:31:50;;;;;;;17.10;12.97;;;;;;;13.27;41.30;102037.59;10564366;27;20242;-72
2023/12/16 07:36:52;;;;;;;22.07;14.80;;;;;;;14.32;40.27;102010.41;10564897;27;20226;-70
2023/12/16 07:41:54;;;;;;;21.73;14.40;;;;;;;14.50;39.72;102062.41;10568127;27;20261;-72
2023/12/16 07:46:56;;;;;;;21.60;13.80;;;;;;;14.27;40.36;102004.63;10571740;27;20273;-71
2023/12/16 07:51:57;;;;;;;18.67;13.03;;;;;;;12.63;42.90;102014.19;10572536;27;20321;-71
2023/12/16 07:56:59;;;;;;;15.87;13.07;;;;;;;15.20;39.16;101971.72;10566102;27;20225;-71
2023/12/16 08:02:05;;;;;;;17.43;12.97;;;;;;;13.59;40.64;102083.94;10569569;27;20354;-72
2023/12/16 08:07:07;;;;;;;15.77;12.23;;;;;;;14.16;40.92;102003.88;10571235;27;20643;-72
2023/12/16 08:12:09;;;;;;;16.10;12.03;;;;;;;14.99;39.98;101964.06;10521719;28;20242;-71
2023/12/16 08:17:10;;;;;;;17.90;13.63;;;;;;;14.83;40.06;101975.59;10553902;27;20611;-71
2023/12/16 08:22:12;;;;;;;19.43;13.23;;;;;;;15.99;38.19;102053.31;10564017;27;20267;-71
2023/12/16 08:27:14;;;;;;;17.70;13.20;;;;;;;15.43;38.90;102028.66;10555485;27;20475;-71
2023/12/16 08:32:16;;;;;;;16.03;11.53;;;;;;;14.14;40.48;102124.34;10563788;27;20217;-71
2023/12/16 08:37:18;;;;;;;17.57;12.90;;;;;;;15.56;38.87;102034.47;10566122;27;20276;-70
2023/12/16 08:42:19;;;;;;;16.80;12.13;;;;;;;14.01;41.83;101960.47;10562711;27;20225;-70
2023/12/16 08:47:21;;;;;;;14.17;11.60;;;;;;;15.09;40.16;102008.78;10562354;27;20252;-70
2023/12/16 08:52:23;;;;;;;14.13;10.67;;;;;;;15.15;39.70;102028.88;10551914;27;20349;-70
2023/12/16 08:57:25;;;;;;;14.33;11.60;;;;;;;15.28;39.50;102013.06;10559952;27;20331;-71
2023/12/16 09:02:27;;;;;;;19.63;12.97;;;;;;;13.48;44.00;101923.63;10564844;27;20242;-71
2023/12/16 09:07:28;;;;;;;19.60;12.90;;;;;;;13.88;41.98;101994.16;10568728;27;20237;-71
2023/12/16 09:12:30;;;;;;;20.23;12.87;;;;;;;16.51;37.87;102041.41;10562815;27;20242;-72
2023/12/16 09:17:32;;;;;;;16.13;11.93;;;;;;;15.00;39.66;102132.91;10566377;27;20267;-72
2023/12/16 09:22:33;;;;;;;18.13;12.30;;;;;;;15.18;39.90;102078.94;10563705;27;20239;-72
2023/12/16 09:27:35;;;;;;;18.30;12.33;;;;;;;15.16;40.02;102075.56;10558874;27;20240;-72
2023/12/16 09:32:37;;;;;;;18.17;12.53;;;;;;;15.34;40.31;102052.06;10565208;27;20767;-73
2023/12/16 09:37:39;;;;;;;16.37;11.57;;;;;;;14.75;40.26;102179.34;10567419;27;20254;-72
2023/12/16 09:42:45;;;;;;;14.77;11.53;;;;;;;15.18;40.21;102101.34;10558895;27;20588;-72
2023/12/16 09:47:51;;;;;;;18.97;14.20;;;;;;;15.13;39.80;102142.28;10566927;27;20775;-72
2023/12/16 09:52:53;;;;;;;17.90;12.67;;;;;;;15.07;40.34;102102.47;10572412;27;20594;-72
2023/12/16 09:57:58;;;;;;;15.83;11.40;;;;;;;12.04;44.65;102126.88;10560057;27;20236;-71
2023/12/16 10:03:00;;;;;;;14.47;10.27;;;;;;;14.86;41.37;102050.75;10563957;27;20241;-72
2023/12/16 10:08:04;;;;;;;16.97;11.27;;;;;;;12.66;44.05;102067.63;10533799;27;20351;-75
2023/12/16 10:13:07;;;;;;;17.27;11.67;;;;;;;13.96;41.88;102097.34;10513918;28;20255;-72
2023/12/16 10:18:09;;;;;;;15.67;11.23;;;;;;;12.11;44.57;102138.75;10506960;28;20239;-72
2023/12/16 10:23:12;;;;;;;14.80;11.40;;;;;;;13.70;43.06;102016.50;10510278;28;20726;-72
2023/12/16 10:28:14;;;;;;;18.10;12.87;;;;;;;14.21;42.36;102017.72;10509281;28;20254;-72
2023/12/16 10:33:22;;;;;;;18.90;12.50;;;;;;;12.14;44.33;102151.06;10522292;27;20606;-72
2023/12/16 10:38:25;;;;;;;17.10;12.20;;;;;;;13.94;43.26;101990.84;10564922;27;20708;-72
2023/12/16 10:43:27;;;;;;;18.77;12.53;;;;;;;12.06;45.24;102079.25;10561732;27;20248;-72
2023/12/16 10:48:32;;;;;;;16.90;11.93;;;;;;;15.11;41.72;101987.03;10564583;27;20230;-72
2023/12/16 10:53:40;;;;;;;15.60;10.50;;;;;;;13.00;44.30;101963.16;10559403;27;20321;-72
2023/12/16 10:58:51;;;;;;;19.43;12.07;;;;;;;15.54;40.75;101987.03;10564368;27;20617;-70
2023/12/16 11:06:17;;;;;;;19.53;13.40;;;;;;;11.01;47.53;102004.50;10488586;27;20301;-69
2023/12/16 11:11:19;;;;;;;16.83;10.93;;;;;;;11.66;46.25;102022.97;10451489;28;20263;-69
2023/12/16 11:16:42;;;;;;;15.63;10.97;;;;;;;13.66;43.17;102018.63;10451621;28;20228;-70
2023/12/16 11:21:45;;;;;;;13.43;10.10;;;;;;;13.57;42.93;102033.00;10459309;28;20721;-69
2023/12/16 11:26:53;;;;;;;18.43;10.57;;;;;;;11.70;44.98;102092.31;10445094;28;20687;-70
2023/12/16 11:31:58;;;;;;;14.73;10.50;;;;;;;14.99;40.93;102015.28;10452362;28;20226;-69
2023/12/16 11:37:02;;;;;;;12.57;9.60;;;;;;;14.99;41.02;101969.47;10442720;28;20696;-70
2023/12/16 11:42:10;;;;;;;14.50;10.37;;;;;;;13.36;42.13;102140.81;10448969;28;20543;-70
2023/12/16 11:47:18;;;;;;;14.57;10.17;;;;;;;13.74;42.36;101990.13;10513606;28;20980;-68
2023/12/16 11:52:22;;;;;;;13.07;9.47;;;;;;;15.30;39.57;102037.19;10461013;28;20783;-71
2023/12/16 11:57:26;;;;;;;11.83;6.73;;;;;;;14.44;39.43;102003.75;10461365;28;20418;-70
2023/12/16 12:02:28;;;;;;;12.53;7.83;;;;;;;14.90;39.50;102011.72;10464613;28;20246;-69
2023/12/16 12:07:30;;;;;;;10.03;7.00;;;;;;;15.73;38.05;102067.75;10462876;28;20257;-74
2023/12/16 12:12:32;;;;;;;10.27;6.70;;;;;;;13.65;40.31;102111.09;10469914;28;20319;-71
2023/12/16 12:17:37;;;;;;;8.53;6.80;;;;;;;14.95;38.49;102084.88;10433623;28;20236;-71
2023/12/16 12:22:40;;;;;;;9.97;6.00;;;;;;;12.92;38.60;102146.66;10441356;28;20227;-70
2023/12/16 12:27:42;;;;;;;10.20;5.40;;;;;;;14.12;36.89;102168.56;10435615;28;20258;-68
2023/12/16 12:32:44;;;;;;;7.37;4.43;;;;;;;13.09;37.37;102077.00;10438051;28;20320;-69
2023/12/16 12:37:46;;;;;;;7.73;5.10;;;;;;;14.64;35.10;102104.09;10433049;28;20306;-69
2023/12/16 12:42:51;;;;;;;6.37;4.40;;;;;;;14.13;36.46;102100.25;10439456;28;20232;-65
2023/12/16 12:47:54;;;;;;;8.47;4.60;;;;;;;14.10;36.35;102015.25;10425783;28;20315;-68
2023/12/16 12:52:56;;;;;;;5.60;4.47;;;;;;;13.62;36.07;102135.63;10436509;28;20259;-67
2023/12/16 12:58:19;;;;;;;8.63;4.90;;;;;;;15.07;35.72;102004.56;10435996;28;20228;-67
2023/12/16 13:03:32;;;;;;;7.23;4.50;;;;;;;13.28;36.96;102077.00;10436780;28;20240;-68
2023/12/16 13:08:35;;;;;;;5.33;4.10;;;;;;;16.09;35.06;102080.19;10437243;28;20235;-68
2023/12/16 13:13:38;;;;;;;6.07;4.50;;;;;;;15.38;35.94;102020.19;10436940;28;20748;-67
2023/12/16 13:18:43;;;;;;;9.67;4.47;;;;;;;15.33;35.05;102039.56;10437210;28;20289;-67
2023/12/16 13:23:48;;;;;;;7.77;4.10;;;;;;;14.82;35.24;102017.88;10437442;28;20256;-71
2023/12/16 13:28:54;;;;;;;6.77;3.87;;;;;;;14.39;35.29;102044.66;10435524;28;20302;-70
2023/12/16 13:33:56;;;;;;;8.03;4.30;;;;;;;14.42;35.17;102075.78;10438824;28;20255;-69
2023/12/16 13:38:58;;;;;;;6.37;3.53;;;;;;;14.69;34.78;102041.66;10437501;28;20613;-69
2023/12/16 13:44:00;;;;;;;6.03;3.87;;;;;;;14.16;36.40;102030.78;10436459;28;20232;-68
2023/12/16 13:49:04;;;;;;;6.13;4.30;;;;;;;16.76;33.44;102012.50;10432708;28;20239;-69
2023/12/16 13:54:07;;;;;;;5.97;4.10;;;;;;;16.19;33.71;102065.50;10438930;28;20232;-69
2023/12/16 13:59:09;;;;;;;7.17;4.43;;;;;;;17.70;32.65;102045.22;10435949;28;20239;-70
2023/12/16 14:04:11;;;;;;;8.03;4.47;;;;;;;15.67;34.62;102044.13;10433689;28;20779;-70
2023/12/16 14:09:13;;;;;;;10.40;4.87;;;;;;;15.00;35.14;102060.09;10458875;28;20678;-71
2023/12/16 14:14:14;;;;;;;8.67;4.53;;;;;;;15.11;35.26;101987.03;10481341;28;20290;-71
2023/12/16 14:19:16;;;;;;;6.57;3.63;;;;;;;13.18;37.99;101917.53;10487347;28;20489;-70
2023/12/16 14:24:18;;;;;;;6.93;3.90;;;;;;;13.26;37.03;101906.00;10477184;28;20598;-73
2023/12/16 14:29:19;;;;;;;4.50;3.57;;;;;;;13.29;36.72;101948.78;10484199;28;20716;-71
2023/12/16 14:34:21;;;;;;;7.03;4.13;;;;;;;14.97;35.54;101896.84;10475598;28;20254;-72
2023/12/16 14:39:23;;;;;;;8.63;3.90;;;;;;;13.22;36.17;102001.41;10471457;28;20262;-74
2023/12/16 14:44:25;;;;;;;6.17;3.70;;;;;;;13.52;35.66;102013.75;10477531;28;20252;-72
2023/12/16 14:49:27;;;;;;;7.83;3.60;;;;;;;16.35;33.31;101924.22;10471048;28;20231;-72
2023/12/16 14:54:29;;;;;;;5.67;3.70;;;;;;;14.18;34.32;101987.56;10476966;28;20260;-70
2023/12/16 14:59:31;;;;;;;6.10;3.30;;;;;;;14.37;34.19;101938.06;10484768;28;20247;-70
2023/12/16 15:04:33;;;;;;;7.30;3.23;;;;;;;12.32;34.93;102025.06;10475684;28;20723;-75
2023/12/16 15:09:36;;;;;;;6.53;3.40;;;;;;;14.52;33.43;101919.47;10454898;28;20266;-73
2023/12/16 15:14:38;;;;;;;5.63;3.60;;;;;;;16.92;32.02;102020.59;10434081;28;20278;-70
2023/12/16 15:19:40;;;;;;;14.03;7.40;;;;;;;15.44;32.94;102074.34;10436986;28;20718;-72
2023/12/16 15:24:41;;;;;;;30.17;18.43;;;;;;;16.30;33.77;101940.09;10430036;28;20420;-73
2023/12/16 15:29:43;;;;;;;34.00;22.60;;;;;;;15.94;32.88;102070.00;10435724;28;20228;-73
2023/12/16 15:34:45;;;;;;;27.63;17.30;;;;;;;17.88;32.07;101964.53;10430660;28;20228;-73
2023/12/16 15:39:47;;;;;;;21.73;15.23;;;;;;;16.27;33.60;102015.25;10433862;28;20326;-73
2023/12/16 15:44:48;;;;;;;18.07;10.73;;;;;;;15.60;33.99;101949.47;10434895;28;20227;-72
2023/12/16 15:49:52;;;;;;;14.10;8.30;;;;;;;14.96;34.66;101927.47;10435059;28;20898;-73
2023/12/16 15:54:53;;;;;;;13.63;9.77;;;;;;;15.31;34.07;101983.06;10441814;28;20675;-73
2023/12/16 15:59:55;;;;;;;12.03;7.20;;;;;;;15.23;33.87;102019.97;10442932;28;20238;-72
2023/12/16 16:04:57;;;;;;;11.00;8.17;;;;;;;15.32;33.90;101921.91;10442901;28;20233;-72
2023/12/16 16:09:59;;;;;;;8.33;7.07;;;;;;;14.50;34.63;101960.03;10434637;28;20800;-72
2023/12/16 16:15:00;;;;;;;12.47;9.50;;;;;;;14.19;34.16;102049.34;10440779;28;20253;-72
2023/12/16 16:20:07;;;;;;;11.13;7.80;;;;;;;14.97;33.82;101942.66;10444561;28;20254;-71
2023/12/16 16:25:09;;;;;;;13.43;9.43;;;;;;;15.70;33.72;101906.16;10442029;28;20592;-72
2023/12/16 16:30:12;;;;;;;11.03;8.83;;;;;;;15.36;33.53;102009.56;10440513;28;20235;-72
2023/12/16 16:35:14;;;;;;;12.80;9.67;;;;;;;16.41;33.01;101928.09;10444303;28;20341;-72
2023/12/16 16:40:17;;;;;;;22.13;13.40;;;;;;;15.76;33.78;101954.06;10433188;28;20227;-70
2023/12/16 16:45:19;;;;;;;16.10;11.73;;;;;;;15.70;33.99;101933.97;10440480;28;20233;-70
2023/12/16 16:50:20;;;;;;;21.43;12.87;;;;;;;13.76;35.94;101978.22;10458922;28;20238;-69
2023/12/16 16:55:22;;;;;;;12.87;9.97;;;;;;;13.91;36.09;101833.19;10482892;28;20535;-71
2023/12/16 17:00:24;;;;;;;13.07;9.77;;;;;;;14.94;34.46;101851.31;10472544;28;20247;-69
2023/12/16 17:05:26;;;;;;;16.27;9.43;;;;;;;14.61;34.84;101926.63;10473646;28;20251;-75
2023/12/16 17:10:28;;;;;;;18.10;11.57;;;;;;;15.44;33.93;101941.31;10479566;28;20236;-71
2023/12/16 17:15:29;;;;;;;17.73;11.73;;;;;;;13.33;35.68;101966.31;10476210;28;20232;-74
2023/12/16 17:20:31;;;;;;;12.17;8.57;;;;;;;13.25;36.60;101819.16;10477675;28;20233;-74
2023/12/16 17:25:33;;;;;;;14.80;9.97;;;;;;;13.40;36.43;101849.06;10473898;28;20243;-73
2023/12/16 17:30:35;;;;;;;14.57;9.73;;;;;;;13.69;36.25;101852.53;10466075;28;20706;-73
2023/12/16 17:35:38;;;;;;;14.70;9.27;;;;;;;14.46;34.82;101929.03;10430818;28;20738;-70
2023/12/16 17:40:40;;;;;;;15.80;10.17;;;;;;;14.51;35.65;101853.13;10420936;28;20231;-71
2023/12/16 17:45:41;;;;;;;15.27;9.63;;;;;;;13.63;35.70;101923.94;10453391;28;20608;-71
2023/12/16 17:50:44;;;;;;;11.83;7.73;;;;;;;13.43;36.40;101826.41;10468374;28;20232;-71
2023/12/16 17:55:46;;;;;;;28.60;18.07;;;;;;;11.64;39.59;101765.66;10477317;28;20227;-70
2023/12/16 18:00:48;;;;;;;24.50;16.90;;;;;;;15.59;33.95;101936.13;10463651;28;20239;-70
2023/12/16 18:05:49;;;;;;;21.73;14.00;;;;;;;15.10;34.06;101929.56;10472905;28;20813;-71
2023/12/16 18:10:52;;;;;;;22.00;14.30;;;;;;;14.55;34.81;101946.94;10471115;28;20261;-71
2023/12/16 18:15:54;;;;;;;19.70;13.77;;;;;;;16.02;33.71;101874.78;10473165;28;20627;-71
2023/12/16 18:20:55;;;;;;;18.70;12.83;;;;;;;15.38;34.13;101948.19;10469827;28;20243;-71
2023/12/16 18:26:04;;;;;;;16.43;13.93;;;;;;;15.02;34.33;101948.41;10466728;28;20228;-71
2023/12/16 18:31:06;;;;;;;19.27;12.97;;;;;;;12.75;37.33;101833.03;10473267;28;20509;-71
2023/12/16 18:36:09;;;;;;;23.10;18.27;;;;;;;13.55;36.34;101849.38;10466943;28;20223;-71
2023/12/16 18:41:11;;;;;;;17.23;12.07;;;;;;;13.85;36.32;101820.38;10465606;28;20248;-72
2023/12/16 18:46:13;;;;;;;17.70;13.07;;;;;;;14.06;35.76;101948.41;10476400;28;20553;-72
2023/12/16 18:51:14;;;;;;;14.03;10.93;;;;;;;14.99;34.61;101881.34;10469825;28;20305;-72
2023/12/16 18:56:16;;;;;;;16.73;10.63;;;;;;;14.58;35.04;101914.28;10461665;28;20219;-71
2023/12/16 19:01:18;;;;;;;15.23;12.03;;;;;;;13.57;35.94;101933.47;10472508;28;20329;-71
2023/12/16 19:06:19;;;;;;;16.63;13.40;;;;;;;13.01;37.03;101921.88;10467503;28;20640;-72
2023/12/16 19:11:23;;;;;;;17.87;12.33;;;;;;;13.42;36.86;101871.28;10463147;28;20231;-70
2023/12/16 19:16:25;;;;;;;17.03;11.47;;;;;;;13.57;36.55;101930.78;10471086;28;20331;-70
2023/12/16 19:21:27;;;;;;;13.20;9.00;;;;;;;13.39;37.20;101921.84;10473487;28;20425;-69
2023/12/16 19:26:28;;;;;;;11.43;8.37;;;;;;;13.18;37.61;101967.78;10473126;28;20254;-69
2023/12/16 19:31:30;;;;;;;13.60;8.70;;;;;;;13.26;37.07;102018.94;10482499;28;20235;-71
2023/12/16 19:36:32;;;;;;;11.57;8.73;;;;;;;13.98;37.05;101933.00;10471789;28;20231;-69
2023/12/16 19:41:33;;;;;;;11.70;7.93;;;;;;;14.51;36.75;101847.72;10480417;28;20562;-72
2023/12/16 19:46:35;;;;;;;9.80;8.23;;;;;;;14.02;36.52;101924.47;10477730;28;20240;-70
2023/12/16 19:51:37;;;;;;;9.07;7.30;;;;;;;13.87;36.62;101963.69;10479942;28;20692;-74
2023/12/16 19:56:39;;;;;;;10.90;8.30;;;;;;;13.47;37.15;101930.81;10478050;28;20228;-72
2023/12/16 20:01:47;;;;;;;13.17;8.37;;;;;;;13.85;36.86;101974.63;10477545;28;20709;-72
2023/12/16 20:06:48;;;;;;;12.63;9.57;;;;;;;13.28;36.94;102011.63;10484280;28;20679;-69
2023/12/16 20:11:50;;;;;;;15.03;10.67;;;;;;;14.33;36.31;101854.03;10475179;28;20736;-74
2023/12/16 20:16:52;;;;;;;11.30;9.40;;;;;;;14.01;36.78;101938.09;10484403;28;20314;-76
2023/12/16 20:21:56;;;;;;;14.93;10.83;;;;;;;14.03;36.20;101901.91;10483640;28;20245;-73
2023/12/16 20:26:57;;;;;;;20.57;15.93;;;;;;;13.41;36.76;101952.09;10481117;28;20634;-75
2023/12/16 20:31:59;;;;;;;25.73;17.00;;;;;;;11.35;39.72;101820.13;10481051;28;20449;-73
2023/12/16 20:37:01;;;;;;;20.83;14.77;;;;;;;11.10;39.72;101863.53;10481037;28;20398;-77
2023/12/16 20:42:03;;;;;;;19.87;14.17;;;;;;;10.97;40.03;101820.94;10480372;28;20231;-75
2023/12/16 20:47:05;;;;;;;21.03;12.50;;;;;;;9.99;41.12;101921.22;10480650;28;20219;-72
2023/12/16 20:52:06;;;;;;;12.30;9.00;;;;;;;10.94;40.93;101722.94;10422705;28;20252;-71
2023/12/16 20:57:08;;;;;;;10.50;7.27;;;;;;;11.71;38.67;101892.88;10477585;28;20479;-71
2023/12/16 21:02:10;;;;;;;16.20;11.40;;;;;;;10.94;40.11;101913.13;10478545;28;20646;-72
2023/12/16 21:07:13;;;;;;;15.90;11.27;;;;;;;10.20;41.44;101907.88;10476275;28;20231;-71
2023/12/16 21:12:15;;;;;;;11.63;9.23;;;;;;;10.18;41.99;101819.72;10474686;28;20205;-72
2023/12/16 21:17:18;;;;;;;13.23;9.87;;;;;;;11.63;40.30;101815.78;10480902;28;20224;-73
2023/12/16 21:22:20;;;;;;;12.10;8.33;;;;;;;10.45;40.84;101949.47;10470868;28;20255;-71
2023/12/16 21:27:22;;;;;;;13.03;9.33;;;;;;;11.67;40.75;101741.25;10474485;28;20672;-73
2023/12/16 21:32:24;;;;;;;18.47;12.17;;;;;;;12.23;39.32;101757.47;10473545;28;21157;-73
2023/12/16 21:37:27;;;;;;;13.10;9.40;;;;;;;10.78;40.63;101904.72;10475018;28;20249;-73
2023/12/16 21:42:28;;;;;;;13.23;9.77;;;;;;;11.17;40.59;101797.66;10475480;28;20258;-72
2023/12/16 21:47:30;;;;;;;12.97;9.63;;;;;;;10.87;40.98;101812.88;10472320;28;20737;-74
2023/12/16 21:52:32;;;;;;;10.23;8.93;;;;;;;9.98;42.34;101801.88;10424138;28;20608;-70
2023/12/16 21:57:33;;;;;;;9.20;7.70;;;;;;;7.96;44.57;101850.06;10475633;28;20250;-75
2023/12/16 22:02:35;;;;;;;12.87;9.13;;;;;;;8.38;45.36;101707.19;10479392;28;20249;-72
2023/12/16 22:07:37;;;;;;;12.20;9.63;;;;;;;9.55;43.89;101629.91;10476682;28;20655;-72
2023/12/16 22:12:39;;;;;;;12.10;8.37;;;;;;;9.11;43.62;101750.25;10474800;28;20763;-73
2023/12/16 22:17:41;;;;;;;9.03;7.93;;;;;;;11.87;40.02;101727.81;10475054;28;20333;-74
2023/12/16 22:22:43;;;;;;;10.00;8.93;;;;;;;11.42;40.08;101745.34;10464519;28;20238;-71
2023/12/16 22:27:45;;;;;;;13.73;10.77;;;;;;;11.53;39.63;101844.41;10421434;28;20267;-73
2023/12/16 22:32:47;;;;;;;13.73;11.07;;;;;;;11.28;39.38;101936.91;10431123;28;20235;-78
2023/12/16 22:37:51;;;;;;;15.23;10.57;;;;;;;9.25;42.74;101882.69;10475375;28;20702;-73
2023/12/16 22:42:52;;;;;;;18.37;12.57;;;;;;;11.72;39.40;101786.44;10466859;28;20255;-75
2023/12/16 22:47:54;;;;;;;15.50;11.77;;;;;;;11.45;39.81;101745.91;10425206;28;20239;-73
2023/12/16 22:52:56;;;;;;;15.87;11.63;;;;;;;12.05;38.93;101828.03;10477479;28;20230;-71